Le Roy, NY

11:46 PM EST on February 08, 2016 (GMT -0500)
Greater Rochester International | | Change Station
CLOSE
Current Station
Airport
Location: Rochester,
Elevation: 554 ft
Nearby Weather Stations

Elev 554 ft 43.12 °N, 77.68 °W | Updated 25 minutes ago

Snow
Snow
33 °F
Feels Like 29 °F
N
5
Wind Variable Wind from ESE

Today
High -- | Low -- °F
--% Chance of Precip.
Yesterday
High -- | Low -- °F
Precip. -- in
Pressure 29.60 in
Visibility 1.5 miles
Clouds Overcast 2000 ft
Windchill 29 °F
Dew Point 30 °F
Humidity 89%
Rainfall 0.00 in
Snow Depth Not available.
7:19 AM 5:33 PM
New Moon, 0% visible
SPECI KROC 090421Z 12004KT 1 1/2SM -SN BR OVC020 01/M01 A2960 RMK AO2 P0001 T00061011
Pressure 29.60 in
Visibility 1.5 miles
Clouds Overcast 2000 ft
Windchill 29 °F
Dew Point 30 °F
Humidity 89%
Rainfall 0.00 in
Snow Depth Not available.
7:19 AM 5:33 PM
New Moon, 0% visible
SPECI KROC 090421Z 12004KT 1 1/2SM -SN BR OVC020 01/M01 A2960 RMK AO2 P0001 T00061011

10-Day Weather Forecast

Almanac

Astronomy

Feb. 08, 2016 Rise Set
Actual Time
Civil Twilight
Nautical Twilight
Astronomical Twilight
Moon
Length of Visible Light
Length of Day
Tomorrow will be .
, % of the Moon is Illuminated

Today's Extremes

State Highs State Lows

Community

WunderPhotos

Upload Photos

1,891,549 photos uploaded!

WunderBlog® & News

Nearby

Air Quality

  Air Quality AQ Index Pollutant
Not available.

Snow Depth

Station Depth Elevation

Earthquake Activity

City Distance Mag. Time & Date
Minimum magnitude displayed is 2.5.

Coastal Water Temperatures

Place Temperature

Stations

Nearby Weather Stations

Station Location Temp. Windchill Dew Point Humidity Wind Precip. Elev Updated Type
                   

Watches & Warnings

There are currently no watches in effect.